sensor_id;sensor_type;location;lat;lon;timestamp;pressure;altitude;pressure_sealevel;temperature;humidity
23361;BME280;11852;50.082;18.554;2022-10-31T00:00:43;98968.5;;;12.16;86.32
23361;BME280;11852;50.082;18.554;2022-10-31T00:01:47;98965.5;;;12.25;85.93
23361;BME280;11852;50.082;18.554;2022-10-31T00:02:52;98965.5;;;12.05;86.65
23361;BME280;11852;50.082;18.554;2022-10-31T00:03:57;98966.5;;;11.89;87.28
23361;BME280;11852;50.082;18.554;2022-10-31T00:05:01;98964.0;;;12.03;86.61
23361;BME280;11852;50.082;18.554;2022-10-31T00:06:05;98966.5;;;12.03;86.61
23361;BME280;11852;50.082;18.554;2022-10-31T00:07:10;98964.5;;;12.02;86.67
23361;BME280;11852;50.082;18.554;2022-10-31T00:08:14;98965.5;;;12.04;86.57
23361;BME280;11852;50.082;18.554;2022-10-31T00:09:18;98959.5;;;11.98;86.82
23361;BME280;11852;50.082;18.554;2022-10-31T00:10:23;98962.5;;;11.84;87.35
23361;BME280;11852;50.082;18.554;2022-10-31T00:11:27;98962.0;;;11.77;87.53
23361;BME280;11852;50.082;18.554;2022-10-31T00:12:31;98964.0;;;11.82;87.2
23361;BME280;11852;50.082;18.554;2022-10-31T00:13:35;98962.0;;;11.96;86.69
23361;BME280;11852;50.082;18.554;2022-10-31T00:14:40;98962.0;;;11.82;87.24
23361;BME280;11852;50.082;18.554;2022-10-31T00:15:44;98963.5;;;11.8;87.31
23361;BME280;11852;50.082;18.554;2022-10-31T00:16:48;98965.0;;;11.91;86.82
23361;BME280;11852;50.082;18.554;2022-10-31T00:17:52;98964.0;;;11.86;87.01
23361;BME280;11852;50.082;18.554;2022-10-31T00:18:58;98965.5;;;11.75;87.49
23361;BME280;11852;50.082;18.554;2022-10-31T00:20:00;98967.01;;;11.78;87.2
23361;BME280;11852;50.082;18.554;2022-10-31T00:21:05;98968.0;;;11.78;87.28
23361;BME280;11852;50.082;18.554;2022-10-31T00:22:09;98965.0;;;11.81;87.09
23361;BME280;11852;50.082;18.554;2022-10-31T00:23:14;98963.0;;;11.79;87.21
23361;BME280;11852;50.082;18.554;2022-10-31T00:24:18;98962.0;;;11.86;86.9
23361;BME280;11852;50.082;18.554;2022-10-31T00:25:22;98960.5;;;11.88;86.81
23361;BME280;11852;50.082;18.554;2022-10-31T00:26:27;98960.0;;;11.77;87.29
23361;BME280;11852;50.082;18.554;2022-10-31T00:27:31;98961.5;;;11.92;86.63
23361;BME280;11852;50.082;18.554;2022-10-31T00:28:35;98960.5;;;11.84;86.93
23361;BME280;11852;50.082;18.554;2022-10-31T00:29:39;98960.5;;;11.93;86.52
23361;BME280;11852;50.082;18.554;2022-10-31T00:30:44;98961.5;;;11.89;86.63
23361;BME280;11852;50.082;18.554;2022-10-31T00:31:48;98963.5;;;11.99;86.26
23361;BME280;11852;50.082;18.554;2022-10-31T00:32:52;98960.5;;;11.78;87.07
23361;BME280;11852;50.082;18.554;2022-10-31T00:33:57;98965.0;;;11.71;87.29
23361;BME280;11852;50.082;18.554;2022-10-31T00:35:00;98967.01;;;11.7;87.19
23361;BME280;11852;50.082;18.554;2022-10-31T00:36:05;98966.5;;;11.66;87.31
23361;BME280;11852;50.082;18.554;2022-10-31T00:37:09;98969.0;;;11.82;86.73
23361;BME280;11852;50.082;18.554;2022-10-31T00:38:14;98967.51;;;11.81;86.76
23361;BME280;11852;50.082;18.554;2022-10-31T00:39:18;98969.49;;;11.86;86.51
23361;BME280;11852;50.082;18.554;2022-10-31T00:40:22;98971.0;;;11.86;86.6
23361;BME280;11852;50.082;18.554;2022-10-31T00:41:26;98966.5;;;11.73;87.04
23361;BME280;11852;50.082;18.554;2022-10-31T00:42:30;98966.0;;;11.7;87.06
23361;BME280;11852;50.082;18.554;2022-10-31T00:43:34;98966.0;;;11.78;86.67
23361;BME280;11852;50.082;18.554;2022-10-31T00:44:39;98966.0;;;11.74;86.82
23361;BME280;11852;50.082;18.554;2022-10-31T00:45:43;98969.0;;;11.82;86.56
23361;BME280;11852;50.082;18.554;2022-10-31T00:46:47;98970.0;;;11.57;87.55
23361;BME280;11852;50.082;18.554;2022-10-31T00:47:52;98969.5;;;11.77;86.63
23361;BME280;11852;50.082;18.554;2022-10-31T00:48:56;98968.5;;;11.8;86.54
23361;BME280;11852;50.082;18.554;2022-10-31T00:50:00;98971.5;;;11.68;86.99
23361;BME280;11852;50.082;18.554;2022-10-31T00:51:05;98971.5;;;11.65;87.04
23361;BME280;11852;50.082;18.554;2022-10-31T00:52:09;98972.5;;;11.6;87.14
23361;BME280;11852;50.082;18.554;2022-10-31T00:53:13;98970.0;;;11.61;87.13
23361;BME280;11852;50.082;18.554;2022-10-31T00:54:17;98973.0;;;11.51;87.46
23361;BME280;11852;50.082;18.554;2022-10-31T00:55:22;98971.5;;;11.62;86.96
23361;BME280;11852;50.082;18.554;2022-10-31T00:56:27;98970.0;;;11.58;87.16
23361;BME280;11852;50.082;18.554;2022-10-31T00:57:31;98970.0;;;11.6;87.06
23361;BME280;11852;50.082;18.554;2022-10-31T00:58:36;98970.49;;;11.49;87.47
23361;BME280;11852;50.082;18.554;2022-10-31T00:59:41;98969.0;;;11.6;86.97
23361;BME280;11852;50.082;18.554;2022-10-31T01:00:48;98973.5;;;11.66;86.83
23361;BME280;11852;50.082;18.554;2022-10-31T01:01:49;98975.0;;;11.75;86.57
23361;BME280;11852;50.082;18.554;2022-10-31T01:02:54;98971.5;;;11.59;87.18
23361;BME280;11852;50.082;18.554;2022-10-31T01:03:58;98972.0;;;11.5;87.37
23361;BME280;11852;50.082;18.554;2022-10-31T01:05:02;98974.0;;;11.53;87.13
23361;BME280;11852;50.082;18.554;2022-10-31T01:06:08;98970.5;;;11.43;87.58
23361;BME280;11852;50.082;18.554;2022-10-31T01:07:11;98970.49;;;11.48;87.31
23361;BME280;11852;50.082;18.554;2022-10-31T01:08:15;98969.0;;;11.38;87.71
23361;BME280;11852;50.082;18.554;2022-10-31T01:09:20;98972.5;;;11.4;87.55
23361;BME280;11852;50.082;18.554;2022-10-31T01:10:24;98969.0;;;11.52;87.07
23361;BME280;11852;50.082;18.554;2022-10-31T01:11:28;98967.51;;;11.26;88.15
23361;BME280;11852;50.082;18.554;2022-10-31T01:12:41;98968.5;;;11.29;87.9
23361;BME280;11852;50.082;18.554;2022-10-31T01:13:45;98965.0;;;11.22;88.15
23361;BME280;11852;50.082;18.554;2022-10-31T01:14:49;98964.5;;;11.1;88.62
23361;BME280;11852;50.082;18.554;2022-10-31T01:15:54;98965.0;;;11.26;87.94
23361;BME280;11852;50.082;18.554;2022-10-31T01:16:58;98969.0;;;11.3;87.84
23361;BME280;11852;50.082;18.554;2022-10-31T01:18:02;98967.01;;;11.3;87.87
23361;BME280;11852;50.082;18.554;2022-10-31T01:19:06;98968.5;;;11.34;87.71
23361;BME280;11852;50.082;18.554;2022-10-31T01:20:11;98969.0;;;11.23;88.18
23361;BME280;11852;50.082;18.554;2022-10-31T01:21:19;98967.01;;;11.15;88.5
23361;BME280;11852;50.082;18.554;2022-10-31T01:22:22;98969.0;;;11.21;88.13
23361;BME280;11852;50.082;18.554;2022-10-31T01:23:27;98969.0;;;11.13;88.44
23361;BME280;11852;50.082;18.554;2022-10-31T01:24:31;98972.0;;;11.22;88.13
23361;BME280;11852;50.082;18.554;2022-10-31T01:25:35;98969.0;;;11.1;88.61
23361;BME280;11852;50.082;18.554;2022-10-31T01:26:39;98970.0;;;11.06;88.67
23361;BME280;11852;50.082;18.554;2022-10-31T01:27:44;98969.0;;;11.02;88.81
23361;BME280;11852;50.082;18.554;2022-10-31T01:28:52;98969.99;;;11.06;88.56
23361;BME280;11852;50.082;18.554;2022-10-31T01:29:52;98968.0;;;11.06;88.55
23361;BME280;11852;50.082;18.554;2022-10-31T01:31:00;98971.0;;;11.01;88.77
23361;BME280;11852;50.082;18.554;2022-10-31T01:32:04;98968.0;;;11.15;88.19
23361;BME280;11852;50.082;18.554;2022-10-31T01:33:08;98969.0;;;11.03;88.63
23361;BME280;11852;50.082;18.554;2022-10-31T01:34:14;98971.5;;;11.02;88.69
23361;BME280;11852;50.082;18.554;2022-10-31T01:35:17;98972.0;;;10.93;88.96
23361;BME280;11852;50.082;18.554;2022-10-31T01:37:30;98971.5;;;10.93;88.96
23361;BME280;11852;50.082;18.554;2022-10-31T01:38:34;98969.0;;;10.95;88.82
23361;BME280;11852;50.082;18.554;2022-10-31T01:39:38;98966.5;;;10.95;88.87
23361;BME280;11852;50.082;18.554;2022-10-31T01:40:43;98969.5;;;10.91;89.03
23361;BME280;11852;50.082;18.554;2022-10-31T01:41:48;98968.01;;;10.98;88.81
23361;BME280;11852;50.082;18.554;2022-10-31T01:42:52;98969.0;;;11.09;88.38
23361;BME280;11852;50.082;18.554;2022-10-31T01:43:56;98966.5;;;11.01;88.68
23361;BME280;11852;50.082;18.554;2022-10-31T01:45:00;98965.5;;;11.06;88.46
23361;BME280;11852;50.082;18.554;2022-10-31T01:46:04;98967.01;;;11.15;88.15
23361;BME280;11852;50.082;18.554;2022-10-31T01:47:13;98967.51;;;11.02;88.65
23361;BME280;11852;50.082;18.554;2022-10-31T01:48:15;98968.5;;;11.07;88.36
23361;BME280;11852;50.082;18.554;2022-10-31T01:49:28;98971.0;;;11.05;88.49
23361;BME280;11852;50.082;18.554;2022-10-31T01:50:33;98972.5;;;11.06;88.43
23361;BME280;11852;50.082;18.554;2022-10-31T01:51:37;98974.5;;;11.03;88.48
23361;BME280;11852;50.082;18.554;2022-10-31T01:52:44;98972.0;;;11.05;88.38
23361;BME280;11852;50.082;18.554;2022-10-31T01:53:47;98972.5;;;11.19;87.88
23361;BME280;11852;50.082;18.554;2022-10-31T01:54:52;98969.49;;;11.01;88.63
23361;BME280;11852;50.082;18.554;2022-10-31T01:55:55;98970.0;;;10.89;88.96
23361;BME280;11852;50.082;18.554;2022-10-31T01:56:59;98969.99;;;11.03;88.38
23361;BME280;11852;50.082;18.554;2022-10-31T01:58:07;98969.5;;;11.03;88.42
23361;BME280;11852;50.082;18.554;2022-10-31T01:59:11;98967.0;;;11.08;88.18
23361;BME280;11852;50.082;18.554;2022-10-31T02:00:15;98971.0;;;11.07;88.21
23361;BME280;11852;50.082;18.554;2022-10-31T02:01:19;98971.5;;;10.91;88.93
23361;BME280;11852;50.082;18.554;2022-10-31T02:02:23;98968.5;;;10.81;89.19
23361;BME280;11852;50.082;18.554;2022-10-31T02:03:27;98972.0;;;10.86;88.97
23361;BME280;11852;50.082;18.554;2022-10-31T02:04:31;98972.5;;;10.88;88.88
23361;BME280;11852;50.082;18.554;2022-10-31T02:05:35;98971.0;;;10.93;88.72
23361;BME280;11852;50.082;18.554;2022-10-31T02:06:49;98972.0;;;10.85;89.03
23361;BME280;11852;50.082;18.554;2022-10-31T02:07:54;98974.5;;;11.03;88.26
23361;BME280;11852;50.082;18.554;2022-10-31T02:08:56;98974.5;;;10.85;88.99
23361;BME280;11852;50.082;18.554;2022-10-31T02:10:01;98975.5;;;10.78;89.21
23361;BME280;11852;50.082;18.554;2022-10-31T02:11:05;98973.0;;;10.78;89.12
23361;BME280;11852;50.082;18.554;2022-10-31T02:12:09;98974.0;;;10.76;89.15
23361;BME280;11852;50.082;18.554;2022-10-31T02:13:14;98974.5;;;10.75;89.21
23361;BME280;11852;50.082;18.554;2022-10-31T02:14:18;98973.5;;;10.73;89.22
23361;BME280;11852;50.082;18.554;2022-10-31T02:15:22;98975.0;;;10.74;89.13
23361;BME280;11852;50.082;18.554;2022-10-31T02:16:26;98975.5;;;10.7;89.32
23361;BME280;11852;50.082;18.554;2022-10-31T02:17:30;98972.0;;;10.72;89.23
23361;BME280;11852;50.082;18.554;2022-10-31T02:18:35;98969.49;;;10.8;88.96
23361;BME280;11852;50.082;18.554;2022-10-31T02:22:14;98969.0;;;10.73;89.15
23361;BME280;11852;50.082;18.554;2022-10-31T02:30:41;98968.5;;;10.74;88.93
23361;BME280;11852;50.082;18.554;2022-10-31T02:33:03;98971.5;;;10.61;89.43
23361;BME280;11852;50.082;18.554;2022-10-31T02:36:40;98972.5;;;10.69;89.13
23361;BME280;11852;50.082;18.554;2022-10-31T02:40:10;98975.0;;;10.6;89.42
23361;BME280;11852;50.082;18.554;2022-10-31T02:42:22;98974.5;;;10.84;88.53
23361;BME280;11852;50.082;18.554;2022-10-31T02:43:28;98974.0;;;10.75;88.85
23361;BME280;11852;50.082;18.554;2022-10-31T02:47:03;98969.0;;;10.71;88.88
23361;BME280;11852;50.082;18.554;2022-10-31T02:48:09;98973.0;;;10.84;88.4
23361;BME280;11852;50.082;18.554;2022-10-31T02:49:20;98975.5;;;10.92;88.21
23361;BME280;11852;50.082;18.554;2022-10-31T02:50:23;98970.49;;;10.8;88.63
23361;BME280;11852;50.082;18.554;2022-10-31T02:51:26;98973.0;;;10.78;88.7
23361;BME280;11852;50.082;18.554;2022-10-31T02:52:31;98973.5;;;10.84;88.33
23361;BME280;11852;50.082;18.554;2022-10-31T02:53:35;98971.5;;;10.68;89.04
23361;BME280;11852;50.082;18.554;2022-10-31T02:54:38;98976.0;;;10.62;89.24
23361;BME280;11852;50.082;18.554;2022-10-31T02:56:59;98976.0;;;10.73;88.77
23361;BME280;11852;50.082;18.554;2022-10-31T02:58:06;98973.5;;;10.63;89.15
23361;BME280;11852;50.082;18.554;2022-10-31T02:59:08;98976.0;;;10.63;89.13
23361;BME280;11852;50.082;18.554;2022-10-31T03:00:13;98975.0;;;10.78;88.56
23361;BME280;11852;50.082;18.554;2022-10-31T03:03:53;98976.0;;;10.73;88.65
23361;BME280;11852;50.082;18.554;2022-10-31T03:07:20;98983.0;;;10.85;88.18
23361;BME280;11852;50.082;18.554;2022-10-31T03:08:24;98982.99;;;10.73;88.71
23361;BME280;11852;50.082;18.554;2022-10-31T03:09:37;98987.5;;;10.66;88.93
23361;BME280;11852;50.082;18.554;2022-10-31T03:10:42;98987.5;;;10.72;88.66
23361;BME280;11852;50.082;18.554;2022-10-31T03:12:07;98987.5;;;10.71;88.74
23361;BME280;11852;50.082;18.554;2022-10-31T03:12:52;98990.5;;;10.72;88.68
23361;BME280;11852;50.082;18.554;2022-10-31T03:14:06;98988.0;;;10.7;88.65
23361;BME280;11852;50.082;18.554;2022-10-31T03:16:32;98991.0;;;10.83;88.24
23361;BME280;11852;50.082;18.554;2022-10-31T03:17:33;98990.5;;;10.77;88.46
23361;BME280;11852;50.082;18.554;2022-10-31T03:18:37;98990.0;;;10.71;88.64
23361;BME280;11852;50.082;18.554;2022-10-31T03:19:40;98993.01;;;10.7;88.69
23361;BME280;11852;50.082;18.554;2022-10-31T03:20:56;98992.5;;;10.73;88.57
23361;BME280;11852;50.082;18.554;2022-10-31T03:23:06;98992.5;;;10.68;88.72
23361;BME280;11852;50.082;18.554;2022-10-31T03:24:09;98992.0;;;10.7;88.59
23361;BME280;11852;50.082;18.554;2022-10-31T03:25:13;98996.5;;;10.66;88.77
23361;BME280;11852;50.082;18.554;2022-10-31T03:26:18;98994.49;;;10.55;89.21
23361;BME280;11852;50.082;18.554;2022-10-31T03:27:23;98994.5;;;10.65;88.82
23361;BME280;11852;50.082;18.554;2022-10-31T03:28:28;98994.5;;;10.58;89.04
23361;BME280;11852;50.082;18.554;2022-10-31T03:29:32;98995.49;;;10.63;88.82
23361;BME280;11852;50.082;18.554;2022-10-31T03:30:35;98991.5;;;10.73;88.45
23361;BME280;11852;50.082;18.554;2022-10-31T03:32:02;98995.49;;;10.67;88.68
23361;BME280;11852;50.082;18.554;2022-10-31T03:32:51;98994.49;;;10.72;88.47
23361;BME280;11852;50.082;18.554;2022-10-31T03:33:53;98996.0;;;10.62;88.82
23361;BME280;11852;50.082;18.554;2022-10-31T03:34:58;98998.5;;;10.59;88.96
23361;BME280;11852;50.082;18.554;2022-10-31T03:36:02;98998.0;;;10.65;88.7
23361;BME280;11852;50.082;18.554;2022-10-31T03:37:06;99000.5;;;10.77;88.3
23361;BME280;11852;50.082;18.554;2022-10-31T03:38:10;99004.5;;;10.69;88.58
23361;BME280;11852;50.082;18.554;2022-10-31T03:39:14;99001.5;;;10.78;88.21
23361;BME280;11852;50.082;18.554;2022-10-31T03:40:19;99005.0;;;10.69;88.49
23361;BME280;11852;50.082;18.554;2022-10-31T03:41:23;99003.0;;;10.64;88.62
23361;BME280;11852;50.082;18.554;2022-10-31T03:42:30;99004.0;;;10.68;88.42
23361;BME280;11852;50.082;18.554;2022-10-31T03:43:32;99003.0;;;10.51;89.18
23361;BME280;11852;50.082;18.554;2022-10-31T03:44:35;99004.5;;;10.56;88.92
23361;BME280;11852;50.082;18.554;2022-10-31T03:45:40;99007.0;;;10.5;89.1
23361;BME280;11852;50.082;18.554;2022-10-31T03:46:44;99004.0;;;10.53;88.96
23361;BME280;11852;50.082;18.554;2022-10-31T03:47:48;99005.5;;;10.59;88.75
23361;BME280;11852;50.082;18.554;2022-10-31T03:48:53;99005.5;;;10.61;88.76
23361;BME280;11852;50.082;18.554;2022-10-31T03:49:57;99005.5;;;10.53;89.02
23361;BME280;11852;50.082;18.554;2022-10-31T03:54:13;99008.5;;;10.65;88.54
23361;BME280;11852;50.082;18.554;2022-10-31T03:54:35;99006.0;;;10.52;89.01
23361;BME280;11852;50.082;18.554;2022-10-31T03:56:52;99009.0;;;10.44;89.32
23361;BME280;11852;50.082;18.554;2022-10-31T03:57:57;99009.0;;;10.53;88.87
23361;BME280;11852;50.082;18.554;2022-10-31T04:00:09;99007.99;;;10.4;89.41
23361;BME280;11852;50.082;18.554;2022-10-31T04:01:13;99009.0;;;10.4;89.35
23361;BME280;11852;50.082;18.554;2022-10-31T04:02:17;99006.5;;;10.53;88.85
23361;BME280;11852;50.082;18.554;2022-10-31T04:04:30;99006.0;;;10.46;89.13
23361;BME280;11852;50.082;18.554;2022-10-31T04:05:34;99007.0;;;10.44;89.18
23361;BME280;11852;50.082;18.554;2022-10-31T04:06:39;99007.5;;;10.48;88.99
23361;BME280;11852;50.082;18.554;2022-10-31T04:07:43;99007.99;;;10.44;89.12
23361;BME280;11852;50.082;18.554;2022-10-31T04:08:53;99009.5;;;10.43;89.19
23361;BME280;11852;50.082;18.554;2022-10-31T04:09:56;99014.5;;;10.57;88.6
23361;BME280;11852;50.082;18.554;2022-10-31T04:11:01;99011.0;;;10.71;88.11
23361;BME280;11852;50.082;18.554;2022-10-31T04:12:05;99012.5;;;10.68;88.29
23361;BME280;11852;50.082;18.554;2022-10-31T04:13:11;99015.0;;;10.61;88.44
23361;BME280;11852;50.082;18.554;2022-10-31T04:14:14;99013.5;;;10.56;88.53
23361;BME280;11852;50.082;18.554;2022-10-31T04:15:19;99015.0;;;10.67;88.04
23361;BME280;11852;50.082;18.554;2022-10-31T04:16:23;99016.0;;;10.62;88.21
23361;BME280;11852;50.082;18.554;2022-10-31T04:17:27;99017.0;;;10.49;88.67
23361;BME280;11852;50.082;18.554;2022-10-31T04:18:32;99016.0;;;10.39;89.03
23361;BME280;11852;50.082;18.554;2022-10-31T04:19:36;99017.5;;;10.3;89.25
23361;BME280;11852;50.082;18.554;2022-10-31T04:20:41;99017.5;;;10.39;88.85
23361;BME280;11852;50.082;18.554;2022-10-31T04:21:45;99019.99;;;10.33;89.1
23361;BME280;11852;50.082;18.554;2022-10-31T04:22:49;99022.0;;;10.41;88.73
23361;BME280;11852;50.082;18.554;2022-10-31T04:23:53;99024.0;;;10.49;88.48
23361;BME280;11852;50.082;18.554;2022-10-31T04:24:57;99026.0;;;10.4;88.79
23361;BME280;11852;50.082;18.554;2022-10-31T04:26:02;99023.5;;;10.43;88.51
23361;BME280;11852;50.082;18.554;2022-10-31T04:27:06;99026.0;;;10.45;88.51
23361;BME280;11852;50.082;18.554;2022-10-31T04:28:10;99027.0;;;10.56;88.15
23361;BME280;11852;50.082;18.554;2022-10-31T04:29:15;99029.0;;;10.64;87.87
23361;BME280;11852;50.082;18.554;2022-10-31T04:30:19;99026.0;;;10.5;88.35
23361;BME280;11852;50.082;18.554;2022-10-31T04:31:24;99025.5;;;10.48;88.33
23361;BME280;11852;50.082;18.554;2022-10-31T04:32:29;99025.0;;;10.47;88.31
23361;BME280;11852;50.082;18.554;2022-10-31T04:33:33;99024.5;;;10.3;88.91
23361;BME280;11852;50.082;18.554;2022-10-31T04:34:38;99030.01;;;10.43;88.39
23361;BME280;11852;50.082;18.554;2022-10-31T04:35:42;99027.0;;;10.45;88.38
23361;BME280;11852;50.082;18.554;2022-10-31T04:36:46;99029.51;;;10.36;88.65
23361;BME280;11852;50.082;18.554;2022-10-31T04:37:50;99026.0;;;10.41;88.44
23361;BME280;11852;50.082;18.554;2022-10-31T04:38:54;99025.0;;;10.37;88.58
23361;BME280;11852;50.082;18.554;2022-10-31T04:39:59;99024.0;;;10.39;88.5
23361;BME280;11852;50.082;18.554;2022-10-31T04:41:04;99025.0;;;10.36;88.6
23361;BME280;11852;50.082;18.554;2022-10-31T04:42:08;99023.5;;;10.36;88.6
23361;BME280;11852;50.082;18.554;2022-10-31T04:43:13;99031.5;;;10.34;88.69
23361;BME280;11852;50.082;18.554;2022-10-31T04:44:17;99030.5;;;10.32;88.74
23361;BME280;11852;50.082;18.554;2022-10-31T04:45:21;99032.0;;;10.38;88.48
23361;BME280;11852;50.082;18.554;2022-10-31T04:46:25;99033.0;;;10.51;88.08
23361;BME280;11852;50.082;18.554;2022-10-31T04:47:31;99032.49;;;10.51;88.1
23361;BME280;11852;50.082;18.554;2022-10-31T04:48:34;99031.01;;;10.42;88.44
23361;BME280;11852;50.082;18.554;2022-10-31T04:49:38;99034.5;;;10.3;88.87
23361;BME280;11852;50.082;18.554;2022-10-31T04:50:43;99032.49;;;10.43;88.28
23361;BME280;11852;50.082;18.554;2022-10-31T04:51:47;99032.5;;;10.46;88.26
23361;BME280;11852;50.082;18.554;2022-10-31T04:52:52;99032.0;;;10.47;88.31
23361;BME280;11852;50.082;18.554;2022-10-31T04:53:56;99032.0;;;10.39;88.51
23361;BME280;11852;50.082;18.554;2022-10-31T04:55:00;99032.5;;;10.37;88.49
23361;BME280;11852;50.082;18.554;2022-10-31T04:56:04;99033.5;;;10.23;89.16
23361;BME280;11852;50.082;18.554;2022-10-31T04:57:09;99035.0;;;10.36;88.58
23361;BME280;11852;50.082;18.554;2022-10-31T04:58:13;99035.0;;;10.43;88.43
23361;BME280;11852;50.082;18.554;2022-10-31T04:59:17;99033.5;;;10.24;89.2
23361;BME280;11852;50.082;18.554;2022-10-31T05:00:22;99032.0;;;10.19;89.32
23361;BME280;11852;50.082;18.554;2022-10-31T05:01:26;99032.99;;;10.27;88.87
23361;BME280;11852;50.082;18.554;2022-10-31T05:02:30;99034.5;;;10.16;89.4
23361;BME280;11852;50.082;18.554;2022-10-31T05:03:34;99032.0;;;10.19;89.24
23361;BME280;11852;50.082;18.554;2022-10-31T05:04:38;99036.0;;;10.05;89.92
23361;BME280;11852;50.082;18.554;2022-10-31T05:05:42;99036.5;;;10.08;89.76
23361;BME280;11852;50.082;18.554;2022-10-31T05:06:46;99038.0;;;10.18;89.37
23361;BME280;11852;50.082;18.554;2022-10-31T05:07:51;99037.0;;;10.32;88.98
23361;BME280;11852;50.082;18.554;2022-10-31T05:08:55;99038.5;;;10.24;89.28
23361;BME280;11852;50.082;18.554;2022-10-31T05:09:59;99039.5;;;10.22;89.36
23361;BME280;11852;50.082;18.554;2022-10-31T05:11:03;99041.5;;;10.3;89.1
23361;BME280;11852;50.082;18.554;2022-10-31T05:12:08;99041.5;;;10.43;88.69
23361;BME280;11852;50.082;18.554;2022-10-31T05:13:12;99041.5;;;10.48;88.56
23361;BME280;11852;50.082;18.554;2022-10-31T05:14:17;99043.0;;;10.51;88.43
23361;BME280;11852;50.082;18.554;2022-10-31T05:15:22;99042.01;;;10.23;89.49
23361;BME280;11852;50.082;18.554;2022-10-31T05:16:25;99039.0;;;10.34;88.87
23361;BME280;11852;50.082;18.554;2022-10-31T05:17:30;99041.0;;;10.24;89.35
23361;BME280;11852;50.082;18.554;2022-10-31T05:18:34;99041.5;;;10.29;89.1
23361;BME280;11852;50.082;18.554;2022-10-31T05:19:38;99042.5;;;10.12;89.88
23361;BME280;11852;50.082;18.554;2022-10-31T05:20:42;99045.5;;;10.09;89.92
23361;BME280;11852;50.082;18.554;2022-10-31T05:21:46;99042.01;;;10.2;89.44
23361;BME280;11852;50.082;18.554;2022-10-31T05:22:51;99043.5;;;10.25;89.43
23361;BME280;11852;50.082;18.554;2022-10-31T05:23:55;99045.49;;;10.32;89.25
23361;BME280;11852;50.082;18.554;2022-10-31T05:24:59;99046.0;;;10.31;89.32
23361;BME280;11852;50.082;18.554;2022-10-31T05:26:04;99046.0;;;10.34;89.11
23361;BME280;11852;50.082;18.554;2022-10-31T05:27:08;99045.5;;;10.22;89.69
23361;BME280;11852;50.082;18.554;2022-10-31T05:28:12;99045.5;;;10.18;89.76
23361;BME280;11852;50.082;18.554;2022-10-31T05:29:16;99048.5;;;10.12;90.01
23361;BME280;11852;50.082;18.554;2022-10-31T05:30:22;99048.5;;;10.17;89.83
23361;BME280;11852;50.082;18.554;2022-10-31T05:31:25;99048.0;;;10.19;89.82
23361;BME280;11852;50.082;18.554;2022-10-31T05:32:29;99051.0;;;10.08;90.26
23361;BME280;11852;50.082;18.554;2022-10-31T05:33:33;99051.5;;;10.2;89.74
23361;BME280;11852;50.082;18.554;2022-10-31T05:34:37;99052.0;;;10.31;89.38
23361;BME280;11852;50.082;18.554;2022-10-31T05:35:41;99051.5;;;10.2;89.85
23361;BME280;11852;50.082;18.554;2022-10-31T05:36:45;99052.5;;;10.1;90.17
23361;BME280;11852;50.082;18.554;2022-10-31T05:37:49;99055.51;;;10.13;90.1
23361;BME280;11852;50.082;18.554;2022-10-31T05:38:53;99056.5;;;10.11;90.14
23361;BME280;11852;50.082;18.554;2022-10-31T05:39:58;99056.0;;;10.04;90.47
23361;BME280;11852;50.082;18.554;2022-10-31T05:41:02;99057.99;;;10.18;89.96
23361;BME280;11852;50.082;18.554;2022-10-31T05:42:06;99062.0;;;10.2;89.9
23361;BME280;11852;50.082;18.554;2022-10-31T05:43:10;99063.0;;;10.23;89.87
23361;BME280;11852;50.082;18.554;2022-10-31T05:44:15;99063.5;;;10.2;89.93
23361;BME280;11852;50.082;18.554;2022-10-31T05:45:19;99062.5;;;10.3;89.57
23361;BME280;11852;50.082;18.554;2022-10-31T05:46:23;99064.0;;;10.19;89.99
23361;BME280;11852;50.082;18.554;2022-10-31T05:47:27;99061.5;;;10.13;90.22
23361;BME280;11852;50.082;18.554;2022-10-31T05:48:32;99062.5;;;10.1;90.38
23361;BME280;11852;50.082;18.554;2022-10-31T05:49:36;99061.0;;;10.24;89.85
23361;BME280;11852;50.082;18.554;2022-10-31T05:50:40;99062.0;;;10.22;89.96
23361;BME280;11852;50.082;18.554;2022-10-31T05:51:44;99062.5;;;10.18;90.18
23361;BME280;11852;50.082;18.554;2022-10-31T05:53:58;99060.5;;;10.26;89.81
23361;BME280;11852;50.082;18.554;2022-10-31T05:55:03;99061.0;;;10.22;89.98
23361;BME280;11852;50.082;18.554;2022-10-31T05:56:07;99065.0;;;10.28;89.76
23361;BME280;11852;50.082;18.554;2022-10-31T05:57:11;99062.5;;;10.34;89.63
23361;BME280;11852;50.082;18.554;2022-10-31T05:58:15;99065.5;;;10.15;90.28
23361;BME280;11852;50.082;18.554;2022-10-31T05:59:19;99067.01;;;10.07;90.56
23361;BME280;11852;50.082;18.554;2022-10-31T06:00:24;99070.0;;;10.23;89.9
23361;BME280;11852;50.082;18.554;2022-10-31T06:01:28;99070.49;;;10.19;90.07
23361;BME280;11852;50.082;18.554;2022-10-31T06:02:32;99072.0;;;10.21;90.04
23361;BME280;11852;50.082;18.554;2022-10-31T06:03:37;99074.0;;;10.16;90.26
23361;BME280;11852;50.082;18.554;2022-10-31T06:04:41;99074.0;;;10.15;90.27
23361;BME280;11852;50.082;18.554;2022-10-31T06:05:45;99076.0;;;10.25;90.01
23361;BME280;11852;50.082;18.554;2022-10-31T06:06:49;99076.0;;;10.14;90.4
23361;BME280;11852;50.082;18.554;2022-10-31T06:07:54;99074.5;;;10.21;90.07
23361;BME280;11852;50.082;18.554;2022-10-31T06:08:58;99077.0;;;10.16;90.32
23361;BME280;11852;50.082;18.554;2022-10-31T06:10:03;99077.0;;;10.19;90.24
23361;BME280;11852;50.082;18.554;2022-10-31T06:11:07;99077.5;;;10.31;89.84
23361;BME280;11852;50.082;18.554;2022-10-31T06:12:11;99080.0;;;10.3;89.99
23361;BME280;11852;50.082;18.554;2022-10-31T06:13:15;99082.5;;;10.36;89.78
23361;BME280;11852;50.082;18.554;2022-10-31T06:14:19;99085.0;;;10.47;89.42
23361;BME280;11852;50.082;18.554;2022-10-31T06:15:23;99084.5;;;10.26;90.22
23361;BME280;11852;50.082;18.554;2022-10-31T06:16:28;99086.0;;;10.34;89.82
23361;BME280;11852;50.082;18.554;2022-10-31T06:17:35;99087.5;;;10.35;89.77
23361;BME280;11852;50.082;18.554;2022-10-31T06:18:36;99087.0;;;10.28;90.1